Data for 03/13/2006

Time Sea-Level Adjusted Pressure Absolute Pressure Temperature Relative Humidity Dew Point   
(mb) (inHg) (mb) (inHg) (C) (F) (%) (C) (F)
00:05 1014 29.94 843 24.89 -10.3 13.4 77 -13.6 7.5
00:10 1014 29.94 843 24.89 -10.4 13.4 78 -13.5 7.6
00:15 1014 29.94 843 24.89 -10.3 13.5 78 -13.3 8
00:20 1014 29.94 843 24.89 -10.1 13.9 78 -13.2 8.2
00:25 1014 29.94 844 24.92 -9.9 14.1 76 -13.3 8
00:30 1014 29.94 843 24.89 -10 13.9 76 -13.4 7.8
00:35 1014 29.94 843 24.89 -10.2 13.7 76 -13.6 7.5
00:40 1014 29.94 844 24.92 -10.3 13.5 76 -13.7 7.3
00:45 1014 29.94 843 24.89 -10.4 13.2 76 -13.9 6.9
00:50 1014 29.94 843 24.89 -10.6 12.9 76 -14 6.8
00:55 1014 29.94 843 24.89 -10.6 13 78 -13.8 7.2
01:00 1014 29.94 843 24.89 -10.5 13 76 -14 6.9
01:05 1014 29.94 843 24.89 -10.5 13.1 76 -14 6.8
01:10 1014 29.94 843 24.89 -10.6 13 76 -14 6.8
01:15 1014 29.94 843 24.89 -10.6 12.9 77 -14 6.9
01:20 1014 29.94 843 24.89 -10.6 12.9 77 -13.9 6.9
01:25 1014 29.94 843 24.89 -10.7 12.8 77 -14 6.8
01:30 1014 29.94 843 24.89 -10.6 12.9 76 -14 6.8
01:35 1014 29.94 843 24.89 -10.5 13 76 -14 6.8
01:40 1014 29.94 843 24.89 -10.5 13.1 76 -13.9 6.9
01:45 1014 29.94 843 24.89 -10.5 13.1 76 -14 6.8
01:50 1014 29.94 843 24.89 -10.5 13.1 76 -14 6.8
01:55 1014 29.94 843 24.89 -10.5 13.1 76 -13.9 6.9
02:00 1014 29.94 843 24.89 -10.7 12.7 76 -14.1 6.6
02:05 1014 29.94 843 24.89 -10.8 12.7 76 -14.1 6.5
02:10 1014 29.94 843 24.89 -10.7 12.8 77 -14 6.7
02:15 1014 29.94 843 24.89 -10.5 13.1 76 -14 6.7
02:20 1014 29.94 843 24.89 -10.5 13 75 -14.1 6.7
02:25 1014 29.94 843 24.89 -10.5 13.2 75 -14.1 6.7
02:30 1014 29.94 843 24.89 -10.5 13.1 75 -14.1 6.7
02:35 1014 29.94 843 24.89 -10.5 13.1 75 -14.1 6.6
02:40 1014 29.94 843 24.89 -10.6 13 75 -14.2 6.5
02:45 1014 29.94 843 24.89 -10.7 12.7 76 -14.2 6.4
02:50 1014 29.94 843 24.89 -10.7 12.8 76 -14.2 6.5
02:55 1014 29.94 843 24.89 -10.6 13 75 -14.1 6.6
03:00 1014 29.94 843 24.89 -10.5 13.2 75 -14.1 6.7
03:05 1014 29.94 843 24.89 -10.4 13.2 75 -14.1 6.7
03:10 1014 29.94 843 24.89 -10.4 13.2 75 -14.1 6.7
03:15 1014 29.94 843 24.89 -10.4 13.4 74 -14.1 6.5
03:20 1014 29.94 843 24.89 -10.3 13.5 74 -14.1 6.7
03:25 1014 29.94 843 24.89 -10.6 13 74 -14.3 6.2
03:30 1014 29.94 843 24.89 -10.8 12.5 74 -14.7 5.6
03:35 1014 29.94 843 24.89 -11 12.2 74 -14.7 5.5
03:40 1014 29.94 843 24.89 -11 12.1 75 -14.7 5.5
03:45 1014 29.94 843 24.89 -10.9 12.4 75 -14.5 5.8
03:50 1014 29.94 843 24.89 -10.8 12.6 75 -14.4 6.1
03:55 1014 29.94 843 24.89 -10.7 12.8 75 -14.4 6.1
04:00 1014 29.94 843 24.89 -10.5 13 74 -14.4 6.1
04:05 1014 29.94 843 24.89 -10.9 12.4 74 -14.6 5.6
04:10 1014 29.94 843 24.89 -10.9 12.4 73 -14.8 5.4
04:15 1014 29.94 843 24.89 -10.8 12.5 73 -14.7 5.5
04:20 1014 29.94 843 24.89 -10.8 12.6 73 -14.8 5.4
04:25 1014 29.94 843 24.89 -10.7 12.8 73 -14.6 5.7
04:30 1014 29.94 843 24.89 -10.7 12.8 73 -14.6 5.8
04:35 1014 29.94 843 24.89 -10.8 12.6 74 -14.6 5.7
04:40 1014 29.94 844 24.92 -10.6 12.9 73 -14.6 5.7
04:45 1014 29.94 844 24.92 -10.7 12.8 73 -14.7 5.6
04:50 1014 29.94 844 24.92 -10.9 12.5 73 -14.8 5.4
04:55 1014 29.94 844 24.92 -11 12.3 74 -14.8 5.4
05:00 1014 29.94 844 24.92 -11.1 12.1 74 -14.9 5.2
05:05 1014 29.94 844 24.92 -11 12.3 73 -14.9 5.1
05:10 1014 29.94 844 24.92 -11.1 12.1 73 -14.9 5.1
05:15 1014 29.94 844 24.92 -11.1 12 74 -14.9 5.1
05:20 1014 29.94 844 24.92 -11.2 11.9 73 -15.1 4.9
05:25 1014 29.94 844 24.92 -11.3 11.7 73 -15.2 4.6
05:30 1015 29.97 844 24.92 -11.1 12 72 -15.1 4.7
05:35 1015 29.97 844 24.92 -11 12.2 72 -15.1 4.9
05:40 1015 29.97 844 24.92 -11.1 12.1 72 -15.2 4.7
05:45 1015 29.97 844 24.92 -11.2 11.8 73 -15.2 4.7
05:50 1015 29.97 844 24.92 -11.3 11.7 72 -15.3 4.4
05:55 1015 29.97 844 24.92 -11.3 11.6 72 -15.5 4.1
06:00 1015 29.97 844 24.92 -11.5 11.4 73 -15.3 4.4
06:05 1015 29.97 844 24.92 -11.8 10.9 75 -15.4 4.3
06:10 1015 29.97 844 24.92 -12 10.5 76 -15.4 4.3
06:15 1015 29.97 844 24.92 -12.1 10.3 75 -15.6 4
06:20 1015 29.97 844 24.92 -11.7 11 73 -15.6 3.8
06:25 1015 29.97 844 24.92 -11.2 11.9 71 -15.4 4.2
06:30 1015 29.97 844 24.92 -11.4 11.6 71 -15.5 4
06:35 1015 29.97 844 24.92 -11.6 11.1 76 -15.1 4.8
06:40 1015 29.97 844 24.92 -12 10.3 77 -15.3 4.5
06:45 1015 29.97 844 24.92 -12 10.4 76 -15.4 4.3
06:50 1015 29.97 844 24.92 -11.9 10.7 76 -15.3 4.5
06:55 1015 29.97 844 24.92 -11.8 10.7 76 -15.2 4.6
07:00 1015 29.97 844 24.92 -11.8 10.9 77 -15 5.1
07:05 1015 29.97 844 24.92 -11.6 11.1 75 -15.1 4.8
07:10 1015 29.97 844 24.92 -11.5 11.3 75 -15.1 4.8
07:15 1015 29.97 844 24.92 -11.3 11.7 75 -14.9 5.2
07:20 1015 29.97 844 24.92 -11.2 11.9 74 -14.9 5.1
07:25 1015 29.97 844 24.92 -11 12.1 75 -14.7 5.5
07:30 1015 29.97 844 24.92 -10.9 12.4 74 -14.6 5.7
07:35 1015 29.97 844 24.92 -10.7 12.7 73 -14.6 5.7
07:40 1015 29.97 844 24.92 -10.6 13 73 -14.5 5.9
07:45 1015 29.97 844 24.92 -10.4 13.2 72 -14.6 5.8
07:50 1015 29.97 844 24.92 -10.1 13.8 71 -14.4 6.1
07:55 1015 29.97 844 24.92 -10 14 71 -14.4 6.2
08:00 1015 29.97 844 24.92 -9.9 14.3 71 -14.2 6.4
08:05 1015 29.97 844 24.92 -9.9 14.2 71 -14.2 6.4
08:10 1015 29.97 844 24.92 -9.8 14.3 71 -14.2 6.5
08:15 1015 29.97 844 24.92 -9.7 14.6 70 -14.1 6.6
08:20 1015 29.97 844 24.92 -9.3 15.2 69 -14 6.9
08:25 1015 29.97 844 24.92 -9.1 15.7 68 -14 6.9
08:30 1015 29.97 844 24.92 -8.9 16.1 66 -14.1 6.7
08:35 1015 29.97 844 24.92 -8.5 16.8 66 -13.7 7.3
08:40 1015 29.97 844 24.92 -8 17.6 65 -13.4 7.9
08:45 1015 29.97 844 24.92 -7.8 18 65 -13.3 8
08:50 1015 29.97 844 24.92 -7.7 18.1 66 -13.1 8.5
08:55 1015 29.97 844 24.92 -7.2 19 63 -13.2 8.3
09:00 1015 29.97 844 24.92 -7.2 19 64 -12.9 8.9
09:05 1015 29.97 844 24.92 -7.1 19.3 64 -12.8 9
09:10 1015 29.97 844 24.92 -6.6 20.1 64 -12.4 9.6
09:15 1015 29.97 844 24.92 -6 21.2 61 -12.4 9.7
09:20 1015 29.97 844 24.92 -6 21.2 63 -12 10.4
09:25 1015 29.97 844 24.92 -6 21.3 60 -12.5 9.6
09:30 1015 29.97 844 24.92 -6.1 21 61 -12.5 9.5
09:35 1015 29.97 844 24.92 -5.9 21.4 59 -12.7 9.1
09:40 1015 29.97 844 24.92 -5.6 21.9 59 -12.5 9.5
09:45 1015 29.97 844 24.92 -5.1 22.8 57 -12.4 9.7
09:50 1015 29.97 844 24.92 -4.9 23.3 56 -12.4 9.7
09:55 1015 29.97 844 24.92 -4.6 23.8 55 -12.4 9.7
10:00 1015 29.97 844 24.92 -4.4 24.1 53 -12.6 9.4
10:05 1015 29.97 844 24.92 -4.4 24.1 54 -12.3 9.8
10:10 1015 29.97 844 24.92 -4.2 24.5 52 -12.6 9.4
10:15 1015 29.97 844 24.92 -4 24.8 51 -12.7 9.2
10:20 1015 29.97 844 24.92 -4.1 24.7 52 -12.6 9.3
10:25 1015 29.97 845 24.95 -4 24.8 51 -12.6 9.2
10:30 1015 29.97 845 24.95 -4.1 24.6 52 -12.7 9.2
10:35 1015 29.97 845 24.95 -3.8 25.2 50 -12.8 9
10:40 1015 29.97 845 24.95 -3.8 25.1 51 -12.6 9.4
10:45 1015 29.97 845 24.95 -3.6 25.6 50 -12.6 9.3
10:50 1015 29.97 845 24.95 -3.3 26 49 -12.6 9.3
10:55 1015 29.97 845 24.95 -3.3 26 50 -12.4 9.6
11:00 1015 29.97 845 24.95 -3.4 25.9 50 -12.4 9.7
11:05 1015 29.97 845 24.95 -3.8 25.2 52 -12.3 9.9
11:10 1015 29.97 845 24.95 -2.7 27.1 46 -12.7 9.2
11:15 1015 29.97 845 24.95 -2.5 27.6 46 -12.6 9.4
11:20 1015 29.97 845 24.95 -2.2 28.1 45 -12.5 9.5
11:25 1015 29.97 845 24.95 -1.5 29.4 41 -12.9 8.7
11:30 1015 29.97 845 24.95 -1.2 29.8 42 -12.5 9.4
11:35 1015 29.97 845 24.95 -0.9 30.3 40 -12.9 8.8
11:40 1015 29.97 845 24.95 -1.1 30 40 -13 8.6
11:45 1015 29.97 845 24.95 -0.9 30.4 39 -13.1 8.5
11:50 1015 29.97 845 24.95 -0.4 31.4 37 -13.4 7.8
11:55 1015 29.97 845 24.95 -0.2 31.6 39 -12.6 9.2
12:00 1015 29.97 845 24.95 -1 30.3 39 -13.3 8.1
12:05 1015 29.97 845 24.95 -0.5 31 38 -13.2 8.2
12:10 1015 29.97 844 24.92 0.2 32.4 36 -13.2 8.3
12:15 1015 29.97 845 24.95 -0.4 31.3 40 -12.4 9.7
12:20 1015 29.97 844 24.92 0.3 32.5 37 -12.9 8.9
12:25 1015 29.97 844 24.92 0.7 33.3 36 -12.9 8.8
12:30 1015 29.97 844 24.92 1.4 34.5 34 -12.9 8.8
12:35 1015 29.97 844 24.92 1 33.8 39 -11.5 11.3
12:40 1015 29.97 844 24.92 0.6 33.1 38 -12.2 10
12:45 1015 29.97 844 24.92 -0.2 31.7 40 -12.1 10.2
12:50 1015 29.97 844 24.92 0.3 32.5 39 -12 10.4
12:55 1015 29.97 844 24.92 0.4 32.6 40 -11.7 11
13:00 1015 29.97 844 24.92 1.3 34.3 36 -12.3 9.8
13:05 1015 29.97 844 24.92 2 35.6 35 -12 10.3
13:10 1015 29.97 844 24.92 0.9 33.7 40 -11.4 11.6
13:15 1015 29.97 844 24.92 0.4 32.7 39 -12 10.4
13:20 1015 29.97 844 24.92 0.4 32.6 39 -12 10.5
13:25 1015 29.97 844 24.92 -0.4 31.2 42 -11.8 10.8
13:30 1015 29.97 844 24.92 -1.1 30.1 45 -11.7 10.9
13:35 1015 29.97 844 24.92 -1.5 29.2 46 -11.8 10.7
13:40 1015 29.97 844 24.92 -1.2 29.8 45 -11.8 10.7
13:45 1015 29.97 844 24.92 -1.2 29.8 45 -11.6 11.1
13:50 1015 29.97 844 24.92 -1.1 30.1 44 -11.7 10.9
13:55 1015 29.97 844 24.92 -1.3 29.7 45 -11.9 10.6
14:00 1014 29.94 844 24.92 -0.9 30.4 44 -11.7 10.9
14:05 1014 29.94 844 24.92 -0.7 30.7 43 -11.9 10.7
14:10 1014 29.94 844 24.92 -0.7 30.7 43 -11.7 10.9
14:15 1014 29.94 843 24.89 -0.5 31.1 42 -11.9 10.6
14:20 1014 29.94 843 24.89 0.2 32.4 40 -12 10.4
14:25 1014 29.94 843 24.89 0.9 33.7 38 -11.8 10.7
14:30 1014 29.94 843 24.89 0.6 33.2 37 -12.5 9.5
14:35 1014 29.94 843 24.89 0.6 33.1 38 -12.2 10
14:40 1014 29.94 843 24.89 0.8 33.5 38 -12 10.4
14:45 1014 29.94 843 24.89 0.9 33.5 36 -12.4 9.6
14:50 1014 29.94 843 24.89 1.2 34.1 35 -12.8 9
14:55 1014 29.94 843 24.89 0.9 33.6 36 -12.6 9.4
15:00 1014 29.94 843 24.89 0.6 33.1 35 -13.3 8.1
15:05 1014 29.94 843 24.89 0.5 32.9 40 -11.5 11.3
15:10 1014 29.94 843 24.89 -0.1 31.9 43 -11.3 11.6
15:15 1014 29.94 843 24.89 -0 31.9 40 -12 10.3
15:20 1014 29.94 843 24.89 -0.1 31.9 40 -12 10.4
15:25 1014 29.94 843 24.89 -0.1 31.9 40 -12.3 9.9
15:30 1014 29.94 843 24.89 0 32.1 39 -12.3 9.9
15:35 1014 29.94 843 24.89 0.1 32.2 35 -13.6 7.5
15:40 1014 29.94 843 24.89 0.8 33.4 30 -14.8 5.3
15:45 1014 29.94 843 24.89 1 33.8 32 -13.8 7.1
15:50 1014 29.94 843 24.89 2.1 35.9 24 -16.3 2.7
15:55 1014 29.94 843 24.89 2.7 36.8 17 -20.2 -4.3
16:00 1014 29.94 843 24.89 2.5 36.5 18 -19.8 -3.6
16:05 1014 29.94 843 24.89 2.6 36.6 17 -19.9 -3.8
16:10 1014 29.94 843 24.89 2.4 36.4 19 -19.1 -2.3
16:15 1014 29.94 843 24.89 2 35.7 18 -19.8 -3.7
16:20 1014 29.94 843 24.89 1.9 35.4 19 -19.3 -2.7
16:25 1014 29.94 843 24.89 1.7 35.1 23 -17.3 0.9
16:30 1014 29.94 843 24.89 1.3 34.3 26 -16.3 2.6
16:35 1014 29.94 843 24.89 1.1 34 25 -16.9 1.6
16:40 1014 29.94 843 24.89 1.1 34 25 -17.1 1.2
16:45 1014 29.94 843 24.89 1.2 34.2 22 -18.2 -0.8
16:50 1014 29.94 843 24.89 1.4 34.5 22 -18 -0.3
16:55 1014 29.94 843 24.89 1.2 34.2 23 -17.5 0.5
17:00 1014 29.94 843 24.89 1.2 34.1 24 -17.2 1.1
17:05 1014 29.94 843 24.89 1.1 34 24 -17.5 0.4
17:10 1014 29.94 843 24.89 1.1 34.1 23 -17.8 0
17:15 1014 29.94 843 24.89 1.1 34 24 -17.2 1.1
17:20 1014 29.94 843 24.89 0.9 33.7 25 -17.2 1
17:25 1014 29.94 843 24.89 1 33.8 26 -16.5 2.2
17:30 1014 29.94 843 24.89 1.1 33.9 28 -15.5 4.2
17:35 1014 29.94 843 24.89 1.1 34 30 -14.6 5.8
17:40 1014 29.94 843 24.89 1.3 34.4 30 -14.3 6.3
17:45 1014 29.94 843 24.89 1.3 34.3 31 -14 6.7
17:50 1014 29.94 843 24.89 1 33.8 34 -13.2 8.2
17:55 1014 29.94 843 24.89 0.8 33.4 34 -13.3 8.1
18:00 1014 29.94 843 24.89 0.6 33.1 33 -13.7 7.3
18:05 1014 29.94 844 24.92 0.4 32.7 32 -14.3 6.2
18:10 1014 29.94 844 24.92 -0 31.9 37 -13.1 8.4
18:15 1014 29.94 844 24.92 -0.3 31.4 37 -13.4 8
18:20 1014 29.94 843 24.89 -0.6 30.9 39 -13 8.6
18:25 1014 29.94 843 24.89 -0.8 30.6 39 -13.1 8.4
18:30 1014 29.94 844 24.92 -0.9 30.4 40 -13 8.7
18:35 1014 29.94 844 24.92 -1 30.2 40 -12.9 8.7
18:40 1014 29.94 844 24.92 -1 30.1 41 -12.8 9
18:45 1014 29.94 844 24.92 -1.2 29.9 43 -12.2 10.1
18:50 1014 29.94 844 24.92 -1.9 28.5 49 -11.2 11.9
18:55 1015 29.97 844 24.92 -2.4 27.7 48 -12.1 10.3
19:00 1015 29.97 844 24.92 -2.1 28.2 43 -13.2 8.3
19:05 1015 29.97 844 24.92 -1.9 28.6 44 -12.6 9.3
19:10 1015 29.97 844 24.92 -2 28.4 45 -12.5 9.5
19:15 1015 29.97 844 24.92 -2 28.4 43 -12.9 8.8
19:20 1015 29.97 844 24.92 -1.9 28.6 44 -12.7 9.1
19:25 1015 29.97 844 24.92 -1.8 28.7 44 -12.4 9.6
19:30 1015 29.97 844 24.92 -1.8 28.8 45 -12.1 10.2
19:35 1015 29.97 844 24.92 -2 28.4 47 -11.8 10.8
19:40 1015 29.97 844 24.92 -2.1 28.3 46 -12.2 10
19:45 1015 29.97 844 24.92 -2 28.4 44 -12.6 9.4
19:50 1015 29.97 844 24.92 -2.3 27.9 47 -12.2 10
19:55 1015 29.97 844 24.92 -2.8 27 49 -12.1 10.3
20:00 1015 29.97 844 24.92 -3.2 26.3 48 -12.6 9.4
20:05 1015 29.97 844 24.92 -3.2 26.2 49 -12.4 9.7
20:10 1015 29.97 844 24.92 -3.1 26.4 48 -12.7 9.2
20:15 1015 29.97 844 24.92 -3.3 26.1 50 -12.3 9.8
20:20 1015 29.97 844 24.92 -3.2 26.3 45 -13.4 7.9
20:25 1015 29.97 844 24.92 -2.9 26.7 47 -12.8 8.9
20:30 1015 29.97 844 24.92 -3 26.7 46 -13 8.7
20:35 1015 29.97 844 24.92 -3 26.7 48 -12.5 9.4
20:40 1015 29.97 844 24.92 -2.9 26.8 46 -13.1 8.5
20:45 1015 29.97 844 24.92 -2.9 26.8 48 -12.5 9.5
20:50 1015 29.97 844 24.92 -3.2 26.3 48 -12.6 9.3
20:55 1015 29.97 844 24.92 -3.2 26.2 50 -12.2 10
21:00 1015 29.97 844 24.92 -3.1 26.4 49 -12.5 9.5
21:05 1015 29.97 844 24.92 -3.1 26.4 50 -12.1 10.2
21:10 1015 29.97 844 24.92 -3.3 26.1 48 -12.8 9
21:15 1015 29.97 844 24.92 -3.4 25.8 48 -12.8 8.9
21:20 1015 29.97 844 24.92 -3.5 25.8 48 -13 8.6
21:25 1015 29.97 844 24.92 -3.5 25.6 48 -13.2 8.3
21:30 1015 29.97 844 24.92 -3.5 25.6 47 -13.4 7.9
21:35 1015 29.97 844 24.92 -3.2 26.2 46 -13.2 8.2
21:40 1015 29.97 844 24.92 -3.2 26.2 47 -13 8.6
21:45 1015 29.97 844 24.92 -3.3 26 45 -13.7 7.4
21:50 1015 29.97 844 24.92 -3.2 26.2 46 -13.3 8
21:55 1015 29.97 844 24.92 -3.4 25.9 46 -13.4 8
22:00 1015 29.97 844 24.92 -3.7 25.4 48 -13.1 8.3
22:05 1015 29.97 844 24.92 -4 24.8 49 -13.2 8.2
22:10 1015 29.97 844 24.92 -3.8 25.2 45 -13.9 6.9
22:15 1015 29.97 844 24.92 -3.3 26 45 -13.6 7.6
22:20 1015 29.97 844 24.92 -3.2 26.3 43 -13.9 6.9
22:25 1015 29.97 844 24.92 -2.9 26.8 43 -13.7 7.3
22:30 1015 29.97 844 24.92 -3 26.6 45 -13.4 8
22:35 1015 29.97 844 24.92 -3.4 26 46 -13.3 8
22:40 1015 29.97 844 24.92 -3.7 25.4 47 -13.3 8
22:45 1015 29.97 844 24.92 -3.9 25 48 -13.4 7.9
22:50 1015 29.97 844 24.92 -4 24.8 49 -13.3 8.1
22:55 1015 29.97 844 24.92 -4.4 24.1 50 -13.3 8
23:00 1015 29.97 844 24.92 -4.6 23.7 50 -13.5 7.7
23:05 1015 29.97 844 24.92 -4.8 23.4 50 -13.6 7.5
23:10 1015 29.97 844 24.92 -4.8 23.4 49 -13.8 7.1
23:15 1015 29.97 844 24.92 -4.8 23.3 50 -13.7 7.4
23:20 1015 29.97 844 24.92 -4.9 23.2 51 -13.6 7.5
23:25 1015 29.97 844 24.92 -4.8 23.4 48 -14.2 6.5
23:30 1015 29.97 844 24.92 -4.2 24.4 45 -14.5 5.9
23:35 1015 29.97 844 24.92 -3.9 25 45 -14.2 6.5
23:40 1015 29.97 844 24.92 -4.2 24.5 47 -13.8 7.2
23:45 1015 29.97 844 24.92 -4.4 24.1 48 -13.9 6.9
23:50 1015 29.97 844 24.92 -4.6 23.8 47 -14.3 6.3
23:55 1015 29.97 844 24.92 -4.3 24.2 48 -13.8 7.1
24:00 1015 29.97 844 24.92 -4.8 23.4 49 -13.9 7